RJAARKSS

Guest
Details From RJAA - NARITA INTL
To RKSS - Seoul Gimpo
Flight Number -
Tags generated
Created
Modified
Stats Distance 692 nm / 1,282 km
Max Altitude 34,300 ft / 10,455 m
Waypoints 9
Social Downloads 5
Likes 0
Share VATSIM

Download

Looking for another format? Having issues loading an existing format? Contact us
Advertisement - Login to hide

Notes

Basic altitude profile: - Ascent Rate: 2500ft/min - Ascent Speed: 250kts - Cruise Altitude: 35000ft - Cruise Speed: 420kts - Descent Rate: 1500ft/min - Descent Speed: 250kts Options: - Use NATs: yes - Use PACOTS: yes - Use low airways: yes - Use high airways: yes

Route

RJAA CHINO Y16 SAPRA G585 CUN RKSS

ID Type Via Altitude Latitude Longitude Leg Dist Tot Dist Heading (true) Name
O RJAA APT - 0 ft / 0 m 35.77655˚ 140.38277˚ - 0 nm - NARITA INTL
CHINO FIX - 30,600 ft / 9,327 m 35.88430˚ 138.56549˚ 88 nm 88 nm 275° / 274° -
KOCHO FIX Y16 (AWY-HI) 34,000 ft / 10,363 m 35.92061˚ 135.98941˚ 125 nm 214 nm 272° / 270° -
SAKYU FIX Y16 (AWY-HI) 34,000 ft / 10,363 m 35.91791˚ 134.64788˚ 65 nm 279 nm 270° / 269° -
SAPRA FIX Y16 (AWY-HI) 34,000 ft / 10,363 m 35.82389˚ 130.72361˚ 191 nm 470 nm 269° / 267° -
KPO VOR G585 (AWY-HI) 34,300 ft / 10,455 m 35.97747˚ 129.47433˚ 61 nm 531 nm 279° / 278° POHANG VORTAC
PAROT FIX G585 (AWY-HI) 26,200 ft / 7,986 m 36.34472˚ 128.83778˚ 37 nm 569 nm 306° / 305° -
CUN VOR G585 (AWY-HI) 18,700 ft / 5,700 m 36.63203˚ 128.32539˚ 30 nm 599 nm 305° / 305° YECHEON VOR-DME
O RKSS APT - 0 ft / 0 m 37.55831˚ 126.79058˚ 92 nm 692 nm 308° / 307° Seoul Gimpo

Altitude Profile

Advertisement - Login to hide

Weather


0- 5 10 15 20 25 30 35+ Temperature / ° C

Clouds and Precipitation
Forecast for 2017-12-12 06:00 UTC. Updated 2 hours ago

Ground ~20,000 ft ~40,000 ft Winds

RJAA

Details ICAO RJAA (NRT)
Name NARITA INTL
Region Japan
Timezone Asia/Tokyo (UTC+9.0)
Stats Elevation 141 ft / 43 m (AMSL)
Location 35.776552° 140.382770°
Runways 2
Magnetic Variation 7.405° W

METAR

RJAA 120300Z 25008KT 9999 FEW030 10/M11 Q1009 NOSIG RMK 1CU030 A2980

Decode

TAF

TAF RJAA 112308Z 1200/1306 27008KT 9999 FEW030= TAF RJBB 112305Z 1200/1306 29020KT 9999 FEW020 BKN045

Decode

Departure Runways

ID Width Length Bearing (true) Bearing (mag) Surface Threshold Offset Overrun Length
16L 196 ft / 60 m 7,162 ft / 2,183 m 149.61° 157.01° Asphalt 190 ft / 58 m 0 ft / 0 m
16R 196 ft / 60 m 13,142 ft / 4,006 m 149.61° 157.01° Asphalt 0 ft / 0 m 410 ft / 125 m
34L 196 ft / 60 m 13,142 ft / 4,006 m 329.62° 337.02° Asphalt 0 ft / 0 m 415 ft / 126 m
34R 196 ft / 60 m 7,162 ft / 2,183 m 329.62° 337.02° Asphalt 190 ft / 58 m 0 ft / 0 m

RKSS

Details ICAO RKSS (GMP)
Name Seoul Gimpo
Region South Korea
Timezone Asia/Seoul (UTC+9.0)
Stats Elevation 58 ft / 18 m (AMSL)
Location 37.558310° 126.790584°
Runways 2
Magnetic Variation 8.397° W

METAR

RKSS 120300Z 34007KT 300V010 CAVOK M07/M19 Q1031 NOSIG

Decode

TAF

TAF RKSS 112300Z 1200/1306 32008KT CAVOK TXM04/1206Z TNM12/1221Z TXM02/1306Z

Decode

Destination Runways

ID Width Length Bearing (true) Bearing (mag) Surface Threshold Offset Overrun Length
14L 148 ft / 45 m 11,811 ft / 3,600 m 135.13° 143.53° Asphalt 0 ft / 0 m 394 ft / 120 m
14R 197 ft / 60 m 10,499 ft / 3,200 m 135.08° 143.48° Asphalt 0 ft / 0 m 390 ft / 119 m
32L 197 ft / 60 m 10,499 ft / 3,200 m 315.09° 323.49° Asphalt 0 ft / 0 m 385 ft / 117 m
32R 148 ft / 45 m 11,811 ft / 3,600 m 315.15° 323.55° Asphalt 0 ft / 0 m 394 ft / 120 m

Approach Navaids

Runway Type Ident Frequency Range Bearing (true) Bearing (mag) Slope Elevation
14L Localiser ISEL 109.90 MHz 18 nm / 33 km 135.15° 143.55° - 42 ft / 13 m (AMSL)
14L Glidescope ISEL 109.90 MHz 10 nm / 19 km 135.00° 143.40° 3.00° 49 ft / 15 m (AMSL)
14R Localiser IOFR 108.70 MHz 18 nm / 33 km 135.13° 143.53° - 39 ft / 12 m (AMSL)
14R Glidescope IOFR 108.70 MHz 10 nm / 19 km 135.00° 143.40° 3.00° 39 ft / 12 m (AMSL)
14R DME IOFR 108.70 MHz 18 nm / 33 km - - - 11 ft / 3 m (AMSL)
32L Localiser IKMO 108.30 MHz 18 nm / 33 km 315.11° 323.51° - 32 ft / 10 m (AMSL)
32L Glidescope IKMO 108.30 MHz 10 nm / 19 km 315.28° 323.68° 3.00° 49 ft / 15 m (AMSL)
32L DME IKMO 108.30 MHz 18 nm / 33 km - - - 11 ft / 3 m (AMSL)
32R Localiser ISKP 110.70 MHz 18 nm / 33 km 315.12° 323.52° - 36 ft / 11 m (AMSL)
32R Glidescope ISKP 110.70 MHz 10 nm / 19 km 314.78° 323.18° 3.00° 48 ft / 15 m (AMSL)
32R DME ISKP 110.70 MHz 18 nm / 33 km - - - 11 ft / 3 m (AMSL)

Popular Alternatives